Loxton, Australia
Current Conditions -  °F | °C
As of 7:00 PM on Friday 28 Nov 2014 (Local Time) from YMIA Reporting Station
Clear Clear  
Wind Chill: 86°   Ceiling: Unl
Heat Index: 86°   Visibility: 6mi
Dew Point: 23°   Wind: 6mph
Humidity: 10%   Direction: 120°ESE
Pressure: 29.94"   Gusts: NA
Location:  34.45°S, 140.57°E
Report Text: YMIA 280900Z AUTO 12005KT 9999 // NCD 30/M05 Q1014
Loading
Personal Weather Stations






























Interactive Weather Map New forecast layout! Learn more

10-Day Weather Forecast

Advertisements
Track Severe Weather on mobile